createdAt,value
2019-03-27T00:00:47.095Z,7.70
2019-03-27T00:01:50.192Z,7.70
2019-03-27T00:02:50.652Z,7.60
2019-03-27T00:03:54.234Z,7.70
2019-03-27T00:04:54.829Z,7.70
2019-03-27T00:05:55.369Z,7.60
2019-03-27T00:06:54.979Z,7.70
2019-03-27T00:07:55.419Z,7.60
2019-03-27T00:08:56.007Z,7.60
2019-03-27T00:09:55.756Z,7.70
2019-03-27T00:10:55.421Z,7.70
2019-03-27T00:11:55.919Z,7.60
2019-03-27T00:12:55.565Z,7.60
2019-03-27T00:13:56.126Z,7.60
2019-03-27T00:15:11.618Z,7.50
2019-03-27T00:16:01.273Z,7.60
2019-03-27T00:17:03.865Z,7.60
2019-03-27T00:18:03.457Z,7.60
2019-03-27T00:19:03.212Z,7.60
2019-03-27T00:20:03.643Z,7.50
2019-03-27T00:21:06.378Z,7.50
2019-03-27T00:22:09.861Z,7.60
2019-03-27T00:23:14.323Z,7.60
2019-03-27T00:24:13.925Z,7.60
2019-03-27T00:25:14.522Z,7.60
2019-03-27T00:26:17.964Z,7.60
2019-03-27T00:27:18.405Z,7.60
2019-03-27T00:28:18.908Z,7.60
2019-03-27T00:29:18.497Z,7.60
2019-03-27T00:30:16.892Z,7.60
2019-03-27T00:31:24.092Z,7.60
2019-03-27T00:32:24.295Z,7.60
2019-03-27T00:33:23.984Z,7.70
2019-03-27T00:34:24.471Z,7.70
2019-03-27T00:35:24.975Z,7.60
2019-03-27T00:36:25.464Z,7.60
2019-03-27T00:37:25.969Z,7.60
2019-03-27T00:38:26.474Z,7.60
2019-03-27T00:39:27.020Z,7.70
2019-03-27T00:40:30.118Z,7.60
2019-03-27T00:41:30.132Z,7.60
2019-03-27T00:42:30.577Z,7.60
2019-03-27T00:43:31.028Z,7.60
2019-03-27T00:44:30.624Z,7.60
2019-03-27T00:45:30.251Z,7.60
2019-03-27T00:46:29.868Z,7.50
2019-03-27T00:47:30.208Z,7.60
2019-03-27T00:48:30.492Z,7.60
2019-03-27T00:49:30.098Z,7.60
2019-03-27T00:50:30.534Z,7.60
2019-03-27T00:51:30.955Z,7.60
2019-03-27T00:52:30.535Z,7.70
2019-03-27T00:53:31.044Z,7.60
2019-03-27T00:54:30.536Z,7.50
2019-03-27T00:55:30.987Z,7.50
2019-03-27T00:56:30.539Z,7.50
2019-03-27T00:57:30.966Z,7.50
2019-03-27T00:58:30.517Z,7.50
2019-03-27T00:59:31.003Z,7.40
2019-03-27T01:00:31.610Z,7.40
2019-03-27T01:01:32.004Z,7.40
2019-03-27T01:02:32.415Z,7.40
2019-03-27T01:03:31.877Z,7.40
2019-03-27T01:04:32.282Z,7.50
2019-03-27T01:05:32.745Z,7.40
2019-03-27T01:06:32.219Z,7.40
2019-03-27T01:07:31.799Z,7.40
2019-03-27T01:08:31.576Z,7.40
2019-03-27T01:09:32.056Z,7.40
2019-03-27T01:10:31.670Z,7.40
2019-03-27T01:11:31.991Z,7.40
2019-03-27T01:12:32.489Z,7.40
2019-03-27T01:13:32.036Z,7.40
2019-03-27T01:14:32.516Z,7.40
2019-03-27T01:15:39.629Z,7.40
2019-03-27T01:16:33.747Z,7.30
2019-03-27T01:17:32.189Z,7.30
2019-03-27T01:24:01.433Z,7.30
2019-03-27T01:25:01.352Z,7.40
2019-03-27T01:26:00.812Z,7.30
2019-03-27T01:27:00.487Z,7.40
2019-03-27T01:28:00.967Z,7.30
2019-03-27T01:29:00.447Z,7.30
2019-03-27T01:30:01.094Z,7.40
2019-03-27T01:31:01.574Z,7.40
2019-03-27T01:32:01.983Z,7.40
2019-03-27T01:33:01.614Z,7.30
2019-03-27T01:34:03.081Z,7.30
2019-03-27T01:35:02.715Z,7.40
2019-03-27T01:36:03.230Z,7.30
2019-03-27T01:37:06.215Z,7.20
2019-03-27T01:38:06.175Z,7.20
2019-03-27T01:39:05.674Z,7.20
2019-03-27T01:40:05.262Z,7.30
2019-03-27T01:41:04.915Z,7.30
2019-03-27T01:42:04.424Z,7.30
2019-03-27T01:43:04.911Z,7.30
2019-03-27T01:44:05.236Z,7.30
2019-03-27T01:45:05.268Z,7.30
2019-03-27T01:46:08.243Z,7.30
2019-03-27T01:47:06.606Z,7.30
2019-03-27T01:48:13.863Z,7.30
2019-03-27T01:49:13.913Z,7.30
2019-03-27T01:50:13.537Z,7.30
2019-03-27T01:51:13.062Z,7.30
2019-03-27T01:52:12.795Z,7.20
2019-03-27T01:53:12.375Z,7.20
2019-03-27T01:54:11.984Z,7.20
2019-03-27T01:55:14.988Z,7.10
2019-03-27T01:56:15.176Z,7.20
2019-03-27T01:57:18.374Z,7.20
2019-03-27T02:00:18.233Z,7.20
2019-03-27T02:01:18.501Z,7.20
2019-03-27T02:02:26.787Z,7.20
2019-03-27T02:03:26.488Z,7.20
2019-03-27T02:04:26.243Z,7.20
2019-03-27T02:05:27.524Z,7.20
2019-03-27T02:06:27.927Z,7.10
2019-03-27T02:07:28.395Z,7.20
2019-03-27T02:08:28.815Z,7.10
2019-03-27T02:09:29.290Z,7.10
2019-03-27T02:10:28.816Z,7.10
2019-03-27T02:11:29.301Z,7.10
2019-03-27T02:12:28.983Z,7.10
2019-03-27T02:13:29.396Z,7.20
2019-03-27T02:14:27.932Z,7.10
2019-03-27T02:15:28.409Z,7.10
2019-03-27T02:16:26.768Z,7.10
2019-03-27T02:19:00.043Z,7.10
2019-03-27T02:20:00.470Z,7.10
2019-03-27T02:21:00.858Z,7.10
2019-03-27T02:22:01.554Z,7.10
2019-03-27T02:23:01.172Z,7.10
2019-03-27T02:24:00.753Z,7.00
2019-03-27T02:25:00.527Z,7.10
2019-03-27T02:26:00.906Z,7.10
2019-03-27T02:27:01.365Z,7.10
2019-03-27T02:28:00.910Z,7.00
2019-03-27T02:29:01.399Z,6.90
2019-03-27T02:30:01.848Z,6.90
2019-03-27T02:31:04.535Z,6.90
2019-03-27T02:32:05.074Z,6.80
2019-03-27T02:33:04.710Z,6.80
2019-03-27T02:34:05.362Z,6.80
2019-03-27T02:35:05.079Z,6.80
2019-03-27T02:36:05.573Z,6.70
2019-03-27T02:37:05.077Z,6.60
2019-03-27T02:38:04.676Z,6.60
2019-03-27T02:39:04.295Z,6.60
2019-03-27T02:40:04.811Z,6.50
2019-03-27T02:41:05.208Z,6.50
2019-03-27T02:42:05.741Z,6.50
2019-03-27T02:43:06.304Z,6.50
2019-03-27T02:44:06.834Z,6.40
2019-03-27T02:45:06.404Z,6.50
2019-03-27T02:46:23.369Z,6.40
2019-03-27T02:47:07.537Z,6.40
2019-03-27T02:48:08.085Z,6.30
2019-03-27T02:49:07.719Z,6.20
2019-03-27T02:50:08.280Z,6.30
2019-03-27T02:51:08.708Z,6.20
2019-03-27T02:52:08.316Z,6.20
2019-03-27T02:53:08.853Z,6.20
2019-03-27T02:54:08.709Z,6.20
2019-03-27T02:55:09.178Z,6.20
2019-03-27T02:56:08.792Z,6.10
2019-03-27T02:59:53.038Z,6.20
2019-03-27T03:00:53.012Z,6.10
2019-03-27T03:01:52.593Z,6.00
2019-03-27T03:02:53.057Z,6.00
2019-03-27T03:03:52.659Z,6.00
2019-03-27T03:04:52.287Z,6.00
2019-03-27T03:05:54.781Z,5.90
2019-03-27T03:06:54.330Z,5.90
2019-03-27T03:07:54.872Z,5.90
2019-03-27T03:08:58.356Z,5.90
2019-03-27T03:09:57.962Z,5.80
2019-03-27T03:11:00.465Z,5.80
2019-03-27T03:12:00.199Z,5.80
2019-03-27T03:12:59.905Z,5.70
2019-03-27T03:14:00.421Z,5.70
2019-03-27T03:15:03.626Z,5.70
2019-03-27T03:17:06.414Z,5.60
2019-03-27T03:18:08.926Z,5.60
2019-03-27T03:19:09.532Z,5.50
2019-03-27T03:20:09.451Z,5.60
2019-03-27T03:21:09.869Z,5.50
2019-03-27T03:22:09.385Z,5.50
2019-03-27T03:23:09.008Z,5.40
2019-03-27T03:24:08.544Z,5.40
2019-03-27T03:25:11.223Z,5.40
2019-03-27T03:26:10.975Z,5.40
2019-03-27T03:27:11.307Z,5.40
2019-03-27T03:28:10.922Z,5.40
2019-03-27T03:29:11.359Z,5.50
2019-03-27T03:30:11.120Z,5.40
2019-03-27T03:31:11.546Z,5.40
2019-03-27T03:32:14.065Z,5.40
2019-03-27T03:33:13.667Z,5.40
2019-03-27T03:34:13.306Z,5.40
2019-03-27T03:35:12.953Z,5.30
2019-03-27T03:36:13.472Z,5.20
2019-03-27T03:37:11.776Z,5.20
2019-03-27T03:38:18.989Z,5.20
2019-03-27T03:39:19.093Z,5.20
2019-03-27T03:40:18.646Z,5.10
2019-03-27T03:41:18.285Z,5.10
2019-03-27T03:42:17.877Z,5.20
2019-03-27T03:43:18.371Z,5.10
2019-03-27T03:44:18.066Z,5.10
2019-03-27T03:45:17.665Z,5.10
2019-03-27T03:46:17.316Z,5.10
2019-03-27T03:47:16.807Z,5.20
2019-03-27T03:48:16.482Z,5.10
2019-03-27T03:49:17.024Z,5.10
2019-03-27T03:50:17.475Z,5.00
2019-03-27T03:51:15.840Z,5.10
2019-03-27T03:52:15.576Z,5.00
2019-03-27T03:53:15.251Z,5.00
2019-03-27T03:54:14.913Z,5.10
2019-03-27T03:55:14.502Z,4.90
2019-03-27T03:56:13.840Z,4.90
2019-03-27T04:00:03.602Z,4.90
2019-03-27T04:01:03.576Z,4.90
2019-03-27T04:02:04.018Z,4.90
2019-03-27T04:03:03.617Z,4.90
2019-03-27T04:04:03.204Z,4.90
2019-03-27T04:05:02.798Z,4.90
2019-03-27T04:06:02.600Z,4.90
2019-03-27T04:07:03.067Z,4.90
2019-03-27T04:08:02.623Z,4.90
2019-03-27T04:09:03.556Z,4.90
2019-03-27T04:10:03.595Z,4.80
2019-03-27T04:11:03.154Z,4.80
2019-03-27T04:12:03.614Z,4.90
2019-03-27T04:13:03.259Z,4.90
2019-03-27T04:14:02.934Z,4.90
2019-03-27T04:15:02.475Z,4.80
2019-03-27T04:16:02.893Z,4.90
2019-03-27T04:17:16.329Z,4.90
2019-03-27T04:18:03.952Z,4.90
2019-03-27T04:19:03.608Z,4.90
2019-03-27T04:20:04.201Z,4.90
2019-03-27T04:21:04.696Z,4.80
2019-03-27T04:22:04.408Z,5.00
2019-03-27T04:23:03.993Z,5.00
2019-03-27T04:24:03.593Z,4.90
2019-03-27T04:25:03.154Z,5.00
2019-03-27T04:26:10.788Z,5.00
2019-03-27T04:27:07.620Z,5.00
2019-03-27T04:28:07.360Z,5.00
2019-03-27T04:29:07.909Z,4.90
2019-03-27T04:30:10.537Z,5.00
2019-03-27T04:31:10.258Z,5.00
2019-03-27T04:32:10.846Z,5.00
2019-03-27T04:33:11.328Z,5.00
2019-03-27T04:34:11.815Z,5.00
2019-03-27T04:35:12.168Z,5.00
2019-03-27T04:36:12.628Z,5.10
2019-03-27T04:37:13.080Z,5.10
2019-03-27T04:38:12.736Z,5.20
2019-03-27T04:39:13.224Z,5.20
2019-03-27T04:40:13.785Z,5.20
2019-03-27T04:41:13.332Z,5.20
2019-03-27T04:42:12.961Z,5.20
2019-03-27T04:43:13.533Z,5.30
2019-03-27T04:44:16.959Z,5.30
2019-03-27T04:45:16.948Z,5.30
2019-03-27T04:46:16.652Z,5.30
2019-03-27T04:47:31.123Z,5.40
2019-03-27T04:48:18.579Z,5.40
2019-03-27T04:49:18.097Z,5.40
2019-03-27T04:50:17.761Z,5.40
2019-03-27T04:51:03.256Z,5.50
2019-03-27T04:52:03.695Z,5.50
2019-03-27T04:53:03.323Z,5.50
2019-03-27T04:54:03.015Z,5.50
2019-03-27T04:55:03.705Z,5.50
2019-03-27T04:56:04.049Z,5.50
2019-03-27T04:57:03.652Z,5.60
2019-03-27T04:58:04.164Z,5.50
2019-03-27T04:59:04.697Z,5.60
2019-03-27T05:00:04.711Z,5.60
2019-03-27T05:01:04.737Z,5.60
2019-03-27T05:02:03.024Z,5.60
2019-03-27T05:06:12.181Z,5.50
2019-03-27T05:07:13.831Z,5.40
2019-03-27T05:08:14.019Z,5.40
2019-03-27T05:09:14.516Z,5.40
2019-03-27T05:10:14.066Z,5.40
2019-03-27T05:11:13.720Z,5.40
2019-03-27T05:12:13.332Z,5.40
2019-03-27T05:13:13.744Z,5.40
2019-03-27T05:14:13.458Z,5.40
2019-03-27T05:15:13.133Z,5.40
2019-03-27T05:16:13.608Z,5.30
2019-03-27T05:17:14.107Z,5.30
2019-03-27T05:18:13.649Z,5.30
2019-03-27T05:19:13.248Z,5.30
2019-03-27T05:20:36.085Z,5.30
2019-03-27T05:21:36.539Z,5.20
2019-03-27T05:22:37.001Z,5.20
2019-03-27T05:25:25.491Z,5.10
2019-03-27T05:26:25.124Z,5.20
2019-03-27T05:27:24.700Z,5.20
2019-03-27T05:28:25.253Z,5.10
2019-03-27T05:29:24.796Z,5.10
2019-03-27T05:30:24.358Z,5.20
2019-03-27T05:31:24.085Z,5.20
2019-03-27T05:32:23.651Z,5.30
2019-03-27T05:33:23.337Z,5.30
2019-03-27T05:34:26.069Z,5.30
2019-03-27T05:35:25.675Z,5.40
2019-03-27T05:36:25.231Z,5.40
2019-03-27T05:37:25.660Z,5.40
2019-03-27T05:38:29.149Z,5.40
2019-03-27T05:39:28.943Z,5.50
2019-03-27T05:40:29.204Z,5.50
2019-03-27T05:41:28.741Z,5.60
2019-03-27T05:42:29.251Z,5.50
2019-03-27T05:43:28.839Z,5.60
2019-03-27T05:44:28.499Z,5.60
2019-03-27T05:45:28.930Z,5.60
2019-03-27T05:46:28.490Z,5.60
2019-03-27T05:47:28.168Z,5.60
2019-03-27T05:48:28.645Z,5.70
2019-03-27T05:49:28.260Z,5.70
2019-03-27T05:50:28.765Z,5.80
2019-03-27T05:51:29.222Z,5.80
2019-03-27T05:52:29.830Z,5.70
2019-03-27T05:53:30.364Z,5.80
2019-03-27T05:54:30.982Z,5.80
2019-03-27T05:55:31.392Z,5.80
2019-03-27T05:56:30.863Z,5.80
2019-03-27T05:57:34.684Z,5.90
2019-03-27T05:58:35.149Z,5.90
2019-03-27T05:59:35.643Z,5.90
2019-03-27T06:00:35.249Z,5.90
2019-03-27T06:01:35.555Z,5.90
2019-03-27T06:02:35.072Z,5.90
2019-03-27T06:03:34.851Z,5.90
2019-03-27T06:04:34.464Z,5.90
2019-03-27T06:05:34.948Z,5.90
2019-03-27T06:06:34.824Z,6.00
2019-03-27T06:07:35.223Z,6.00
2019-03-27T06:08:35.894Z,6.00
2019-03-27T06:09:36.336Z,6.00
2019-03-27T06:10:35.932Z,6.00
2019-03-27T06:11:36.346Z,6.00
2019-03-27T06:12:39.875Z,6.10
2019-03-27T06:13:40.324Z,6.10
2019-03-27T06:14:40.853Z,6.10
2019-03-27T06:15:45.206Z,6.20
2019-03-27T06:16:43.876Z,6.20
2019-03-27T06:19:17.319Z,6.20
2019-03-27T06:20:16.763Z,6.30
2019-03-27T06:21:17.264Z,6.20
2019-03-27T06:22:17.660Z,6.20
2019-03-27T06:23:18.016Z,6.20
2019-03-27T06:24:18.523Z,6.20
2019-03-27T06:25:19.211Z,6.20
2019-03-27T06:26:19.527Z,6.30
2019-03-27T06:27:19.943Z,6.30
2019-03-27T06:28:19.643Z,6.30
2019-03-27T06:29:20.064Z,6.30
2019-03-27T06:30:18.397Z,6.30
2019-03-27T06:32:51.917Z,6.40
2019-03-27T06:33:52.392Z,6.50
2019-03-27T06:34:55.449Z,6.60
2019-03-27T06:35:55.493Z,6.70
2019-03-27T06:36:56.087Z,6.70
2019-03-27T06:37:55.790Z,6.70
2019-03-27T06:38:56.244Z,6.80
2019-03-27T06:40:27.752Z,6.70
2019-03-27T06:41:27.406Z,6.80
2019-03-27T06:42:27.928Z,6.80
2019-03-27T06:43:28.409Z,6.90
2019-03-27T06:44:27.891Z,6.80
2019-03-27T06:45:28.247Z,6.90
2019-03-27T06:46:27.884Z,6.80
2019-03-27T06:47:27.491Z,6.90
2019-03-27T06:48:27.884Z,6.90
2019-03-27T06:49:31.461Z,6.90
2019-03-27T06:50:31.896Z,7.00
2019-03-27T06:51:40.107Z,7.00
2019-03-27T06:52:33.124Z,7.00
2019-03-27T06:53:33.682Z,7.10
2019-03-27T06:54:34.283Z,7.10
2019-03-27T06:55:34.552Z,7.20
2019-03-27T06:56:34.049Z,7.30
2019-03-27T06:57:33.591Z,7.30
2019-03-27T06:58:34.067Z,7.30
2019-03-27T06:59:34.114Z,7.30
2019-03-27T07:00:35.349Z,7.40
2019-03-27T07:01:34.873Z,7.50
2019-03-27T07:02:34.857Z,7.50
2019-03-27T07:03:34.997Z,7.70
2019-03-27T07:04:37.238Z,7.80
2019-03-27T07:05:37.090Z,7.80
2019-03-27T07:06:36.766Z,8.00
2019-03-27T07:07:37.258Z,8.00
2019-03-27T07:08:36.856Z,8.10
2019-03-27T07:09:37.315Z,8.20
2019-03-27T07:10:36.845Z,8.30
2019-03-27T07:11:37.216Z,8.20
2019-03-27T07:12:37.706Z,8.20
2019-03-27T07:13:40.428Z,8.30
2019-03-27T07:14:40.786Z,8.30
2019-03-27T07:15:40.384Z,8.50
2019-03-27T07:16:40.831Z,8.50
2019-03-27T07:17:40.481Z,8.60
2019-03-27T07:18:40.681Z,8.60
2019-03-27T07:19:40.525Z,8.70
2019-03-27T07:20:41.165Z,8.80
2019-03-27T07:21:41.632Z,8.80
2019-03-27T07:22:41.192Z,8.80
2019-03-27T07:23:41.688Z,9.00
2019-03-27T07:24:41.155Z,9.10
2019-03-27T07:25:41.604Z,9.20
2019-03-27T07:26:42.096Z,9.10
2019-03-27T07:27:42.553Z,9.10
2019-03-27T07:28:42.995Z,9.20
2019-03-27T07:29:42.530Z,9.30
2019-03-27T07:30:46.075Z,9.50
2019-03-27T07:31:45.715Z,9.50
2019-03-27T07:32:45.195Z,9.50
2019-03-27T07:33:44.855Z,9.60
2019-03-27T07:34:45.382Z,9.60
2019-03-27T07:35:45.041Z,9.50
2019-03-27T07:36:44.623Z,9.50
2019-03-27T07:37:44.287Z,9.40
2019-03-27T07:38:43.808Z,9.40
2019-03-27T07:39:43.396Z,9.30
2019-03-27T07:40:43.054Z,9.40
2019-03-27T07:41:42.682Z,9.50
2019-03-27T07:42:43.140Z,9.60
2019-03-27T07:43:42.769Z,9.60
2019-03-27T07:44:43.193Z,9.60
2019-03-27T07:45:43.005Z,9.50
2019-03-27T07:46:41.711Z,9.40
2019-03-27T07:47:49.167Z,9.50
2019-03-27T07:48:54.274Z,9.40
2019-03-27T07:49:54.296Z,9.30
2019-03-27T07:50:53.905Z,9.40
2019-03-27T07:51:53.599Z,9.40
2019-03-27T07:52:54.161Z,9.30
2019-03-27T07:53:54.598Z,9.30
2019-03-27T07:54:54.248Z,9.20
2019-03-27T07:55:53.910Z,9.30
2019-03-27T07:56:53.518Z,9.50
2019-03-27T07:57:54.082Z,9.70
2019-03-27T07:58:53.645Z,9.50
2019-03-27T07:59:53.245Z,9.60
2019-03-27T08:00:52.760Z,9.60
2019-03-27T08:01:52.416Z,9.50
2019-03-27T08:02:51.957Z,9.40
2019-03-27T08:03:51.566Z,9.20
2019-03-27T08:04:52.068Z,9.30
2019-03-27T08:05:52.421Z,9.50
2019-03-27T08:06:50.798Z,9.90
2019-03-27T08:09:17.218Z,9.80
2019-03-27T08:10:17.718Z,10.20
2019-03-27T08:11:17.604Z,10.80
2019-03-27T08:12:17.844Z,11.50
2019-03-27T08:13:17.573Z,12.10
2019-03-27T08:14:18.992Z,12.50
2019-03-27T08:15:19.539Z,12.80
2019-03-27T08:16:20.009Z,13.00
2019-03-27T08:17:19.544Z,13.00
2019-03-27T08:18:19.088Z,12.60
2019-03-27T08:19:18.618Z,12.80
2019-03-27T08:20:18.234Z,12.60
2019-03-27T08:21:17.863Z,12.20
2019-03-27T08:22:17.694Z,13.20
2019-03-27T08:23:18.096Z,13.90
2019-03-27T08:24:18.708Z,12.70
2019-03-27T08:25:18.391Z,12.10
2019-03-27T08:26:17.930Z,11.90
2019-03-27T08:27:20.602Z,11.50
2019-03-27T08:28:20.283Z,11.30
2019-03-27T08:29:19.831Z,11.10
2019-03-27T08:30:19.521Z,10.80
2019-03-27T08:31:19.045Z,10.70
2019-03-27T08:32:19.513Z,10.60
2019-03-27T08:33:19.223Z,10.70
2019-03-27T08:34:18.817Z,10.60
2019-03-27T08:35:18.433Z,10.70
2019-03-27T08:36:18.852Z,10.60
2019-03-27T08:37:18.415Z,10.60
2019-03-27T08:38:18.082Z,10.90
2019-03-27T08:39:18.149Z,11.50
2019-03-27T08:40:21.285Z,12.30
2019-03-27T08:41:20.892Z,13.10
2019-03-27T08:42:21.320Z,13.70
2019-03-27T08:43:23.947Z,13.90
2019-03-27T08:44:22.639Z,14.40
2019-03-27T08:45:22.192Z,13.80
2019-03-27T08:46:27.719Z,13.50
2019-03-27T08:47:28.291Z,13.50
2019-03-27T08:48:27.989Z,13.20
2019-03-27T08:49:28.451Z,13.10
2019-03-27T08:50:28.035Z,13.20
2019-03-27T08:51:27.623Z,13.00
2019-03-27T08:52:26.027Z,12.60
2019-03-27T08:53:11.738Z,12.30
2019-03-27T08:54:11.449Z,12.30
2019-03-27T08:55:13.513Z,12.20
2019-03-27T08:56:12.785Z,12.00
2019-03-27T08:57:12.388Z,11.80
2019-03-27T08:58:12.074Z,11.70
2019-03-27T08:59:12.617Z,11.70
2019-03-27T09:00:13.000Z,11.60
2019-03-27T09:01:12.518Z,11.50
2019-03-27T09:02:12.153Z,11.50
2019-03-27T09:03:11.776Z,11.90
2019-03-27T09:04:12.151Z,12.00
2019-03-27T09:05:12.590Z,12.00
2019-03-27T09:06:13.102Z,12.20
2019-03-27T09:07:13.380Z,12.70
2019-03-27T09:08:13.149Z,13.00
2019-03-27T09:09:13.702Z,13.10
2019-03-27T09:10:14.144Z,13.10
2019-03-27T09:11:14.570Z,13.00
2019-03-27T09:12:12.939Z,13.40
2019-03-27T09:14:40.124Z,13.10
2019-03-27T09:15:39.719Z,14.00
2019-03-27T09:16:40.246Z,14.50
2019-03-27T09:17:40.661Z,15.00
2019-03-27T09:18:41.231Z,15.00
2019-03-27T09:19:40.863Z,15.00
2019-03-27T09:20:41.288Z,14.60
2019-03-27T09:21:40.810Z,14.60
2019-03-27T09:22:40.552Z,14.30
2019-03-27T09:23:40.096Z,14.00
2019-03-27T09:24:39.836Z,13.60
2019-03-27T09:25:39.356Z,13.40
2019-03-27T09:26:27.374Z,13.10
2019-03-27T09:29:00.184Z,13.00
2019-03-27T09:29:59.727Z,12.80
2019-03-27T09:30:59.351Z,12.50
2019-03-27T09:31:58.927Z,12.50
2019-03-27T09:33:01.409Z,12.10
2019-03-27T09:34:01.048Z,12.10
2019-03-27T09:35:00.567Z,12.20
2019-03-27T09:36:01.072Z,12.10
2019-03-27T09:36:59.627Z,12.10
2019-03-27T09:37:59.394Z,11.90
2019-03-27T09:38:58.964Z,11.90
2019-03-27T09:39:58.465Z,11.70
2019-03-27T09:40:59.023Z,11.70
2019-03-27T09:42:01.778Z,12.00
2019-03-27T09:43:02.229Z,12.10
2019-03-27T09:44:02.787Z,11.60
2019-03-27T09:45:03.396Z,11.50
2019-03-27T09:46:02.924Z,11.30
2019-03-27T09:47:02.488Z,11.30
2019-03-27T09:48:02.159Z,11.50
2019-03-27T09:49:01.849Z,11.70
2019-03-27T09:50:01.428Z,11.60
2019-03-27T09:51:01.032Z,11.30
2019-03-27T09:52:01.570Z,11.50
2019-03-27T09:53:01.180Z,11.70
2019-03-27T09:54:00.805Z,11.70
2019-03-27T09:55:00.425Z,11.40
2019-03-27T09:56:01.020Z,11.20
2019-03-27T09:57:00.589Z,11.20
2019-03-27T09:58:00.276Z,11.50
2019-03-27T09:59:00.693Z,11.70
2019-03-27T10:00:00.415Z,11.90
2019-03-27T10:01:00.927Z,12.10
2019-03-27T10:02:00.737Z,12.20
2019-03-27T10:03:01.185Z,12.10
2019-03-27T10:04:00.779Z,12.20
2019-03-27T10:05:00.488Z,12.30
2019-03-27T10:06:00.961Z,12.40
2019-03-27T10:07:03.715Z,12.50
2019-03-27T10:08:04.320Z,12.50
2019-03-27T10:09:04.752Z,12.50
2019-03-27T10:10:05.257Z,12.60
2019-03-27T10:11:07.906Z,12.60
2019-03-27T10:12:08.391Z,12.70
2019-03-27T10:13:07.865Z,12.70
2019-03-27T10:14:07.588Z,12.90
2019-03-27T10:15:08.156Z,13.10
2019-03-27T10:16:07.835Z,13.10
2019-03-27T10:17:08.324Z,13.20
2019-03-27T10:18:07.929Z,13.60
2019-03-27T10:19:08.307Z,14.00
2019-03-27T10:20:07.859Z,14.50
2019-03-27T10:21:07.431Z,14.80
2019-03-27T10:22:07.942Z,15.10
2019-03-27T10:23:07.606Z,15.40
2019-03-27T10:24:07.278Z,15.60
2019-03-27T10:25:06.816Z,14.50
2019-03-27T10:26:10.471Z,14.20
2019-03-27T10:27:10.062Z,15.00
2019-03-27T10:28:10.523Z,15.00
2019-03-27T10:29:11.041Z,15.10
2019-03-27T10:30:12.511Z,14.50
2019-03-27T10:31:13.000Z,14.30
2019-03-27T10:32:12.642Z,14.00
2019-03-27T10:33:15.140Z,13.50
2019-03-27T10:34:13.720Z,13.40
2019-03-27T10:35:13.266Z,13.60
2019-03-27T10:36:14.684Z,13.90
2019-03-27T10:37:15.350Z,14.10
2019-03-27T10:38:14.917Z,13.50
2019-03-27T10:39:14.440Z,13.60
2019-03-27T10:40:14.064Z,13.70
2019-03-27T10:41:13.663Z,13.80
2019-03-27T10:42:13.312Z,13.90
2019-03-27T10:43:12.841Z,14.00
2019-03-27T10:44:17.504Z,13.80
2019-03-27T10:45:18.052Z,13.70
2019-03-27T10:46:17.657Z,13.20
2019-03-27T10:47:18.068Z,12.90
2019-03-27T10:48:18.409Z,12.10
2019-03-27T10:49:18.125Z,12.00
2019-03-27T10:50:18.631Z,12.50
2019-03-27T10:51:19.091Z,12.90
2019-03-27T10:52:19.666Z,13.10
2019-03-27T10:53:19.293Z,13.20
2019-03-27T10:54:18.827Z,13.30
2019-03-27T10:55:18.564Z,13.50
2019-03-27T10:56:19.044Z,13.60
2019-03-27T10:57:18.663Z,13.70
2019-03-27T10:58:19.134Z,13.70
2019-03-27T10:59:19.623Z,13.10
2019-03-27T11:00:19.320Z,12.60
2019-03-27T11:01:19.792Z,13.00
2019-03-27T11:02:20.358Z,12.80
2019-03-27T11:03:18.879Z,12.90
2019-03-27T11:05:46.083Z,13.10
2019-03-27T11:06:45.765Z,13.40
2019-03-27T11:07:45.285Z,13.20
2019-03-27T11:08:45.828Z,13.00
2019-03-27T11:09:45.614Z,12.90
2019-03-27T11:10:45.349Z,13.40
2019-03-27T11:11:44.934Z,13.50
2019-03-27T11:12:45.500Z,13.80
2019-03-27T11:13:48.101Z,13.40
2019-03-27T11:14:47.696Z,13.30
2019-03-27T11:15:47.361Z,13.50
2019-03-27T11:16:47.815Z,13.40
2019-03-27T11:17:48.297Z,13.50
2019-03-27T11:18:48.761Z,13.60
2019-03-27T11:19:49.344Z,13.80
2019-03-27T11:20:48.962Z,13.90
2019-03-27T11:21:49.475Z,14.00
2019-03-27T11:22:49.948Z,14.10
2019-03-27T11:23:50.399Z,13.90
2019-03-27T11:24:49.987Z,13.80
2019-03-27T11:25:51.687Z,13.70
2019-03-27T11:27:11.133Z,13.80
2019-03-27T11:27:58.651Z,14.00
2019-03-27T11:28:59.034Z,14.00
2019-03-27T11:29:58.712Z,14.00
2019-03-27T11:30:58.223Z,14.20
2019-03-27T11:32:00.891Z,14.10
2019-03-27T11:33:01.363Z,13.60
2019-03-27T11:34:01.852Z,13.50
2019-03-27T11:35:01.333Z,13.50
2019-03-27T11:36:00.988Z,13.70
2019-03-27T11:37:00.587Z,13.60
2019-03-27T11:37:58.956Z,13.60
2019-03-27T11:42:29.103Z,13.50
2019-03-27T11:43:28.747Z,13.10
2019-03-27T11:44:29.300Z,13.40
2019-03-27T11:45:28.998Z,13.40
2019-03-27T11:46:32.142Z,13.60
2019-03-27T11:47:30.927Z,14.00
2019-03-27T11:48:30.516Z,14.40
2019-03-27T11:49:30.076Z,13.90
2019-03-27T11:50:43.738Z,13.60
2019-03-27T11:51:32.124Z,13.60
2019-03-27T11:52:32.622Z,13.60
2019-03-27T11:53:32.998Z,14.10
2019-03-27T11:54:36.091Z,14.20
2019-03-27T11:55:36.162Z,14.40
2019-03-27T11:56:35.730Z,14.40
2019-03-27T11:57:36.233Z,14.30
2019-03-27T11:58:35.754Z,14.60
2019-03-27T11:59:36.259Z,14.60
2019-03-27T12:00:36.733Z,14.60
2019-03-27T12:01:42.027Z,14.70
2019-03-27T12:02:38.779Z,14.70
2019-03-27T12:03:39.197Z,14.60
2019-03-27T12:04:42.623Z,14.10
2019-03-27T12:05:45.609Z,13.70
2019-03-27T12:06:45.571Z,13.20
2019-03-27T12:07:46.080Z,13.10
2019-03-27T12:08:45.578Z,13.30
2019-03-27T12:09:45.163Z,13.50
2019-03-27T12:10:43.453Z,13.60
2019-03-27T12:13:11.448Z,14.00
2019-03-27T12:14:12.417Z,14.20
2019-03-27T12:15:12.635Z,14.10
2019-03-27T12:16:12.159Z,14.10
2019-03-27T12:17:11.964Z,14.30
2019-03-27T12:18:12.395Z,14.20
2019-03-27T12:19:12.798Z,14.30
2019-03-27T12:20:12.411Z,14.50
2019-03-27T12:21:12.731Z,14.40
2019-03-27T12:22:12.298Z,14.20
2019-03-27T12:23:11.909Z,14.10
2019-03-27T12:24:12.369Z,14.00
2019-03-27T12:25:12.846Z,14.20
2019-03-27T12:26:13.272Z,14.20
2019-03-27T12:27:12.846Z,14.10
2019-03-27T12:28:13.409Z,14.00
2019-03-27T12:29:13.873Z,13.80
2019-03-27T12:30:13.618Z,13.70
2019-03-27T12:31:14.196Z,13.50
2019-03-27T12:32:13.753Z,13.60
2019-03-27T12:33:16.830Z,13.50
2019-03-27T12:34:19.896Z,13.40
2019-03-27T12:35:19.497Z,13.40
2019-03-27T12:36:19.055Z,13.40
2019-03-27T12:37:19.643Z,13.00
2019-03-27T12:38:22.293Z,13.10
2019-03-27T12:39:25.076Z,13.20
2019-03-27T12:40:25.507Z,13.10
2019-03-27T12:41:25.154Z,13.20
2019-03-27T12:42:25.615Z,13.20
2019-03-27T12:43:26.131Z,13.20
2019-03-27T12:44:26.651Z,13.20
2019-03-27T12:45:26.288Z,13.10
2019-03-27T12:46:25.895Z,13.10
2019-03-27T12:47:25.369Z,13.00
2019-03-27T12:48:24.928Z,13.00
2019-03-27T12:49:24.546Z,13.00
2019-03-27T12:50:24.103Z,13.00
2019-03-27T12:51:22.459Z,13.00
2019-03-27T12:53:48.953Z,13.20
2019-03-27T12:54:49.394Z,13.40
2019-03-27T12:55:48.909Z,13.50
2019-03-27T12:56:48.599Z,13.50
2019-03-27T12:57:49.135Z,13.30
2019-03-27T12:58:49.704Z,13.30
2019-03-27T12:59:52.340Z,13.30
2019-03-27T13:00:52.410Z,13.00
2019-03-27T13:01:54.545Z,13.00
2019-03-27T13:02:53.967Z,13.00
2019-03-27T13:04:05.047Z,12.80
2019-03-27T13:05:05.284Z,12.90
2019-03-27T13:06:05.751Z,13.00
2019-03-27T13:07:05.316Z,13.00
2019-03-27T13:08:08.795Z,13.10
2019-03-27T13:09:08.500Z,13.10
2019-03-27T13:10:08.989Z,13.10
2019-03-27T13:11:09.429Z,13.10
2019-03-27T13:12:09.124Z,13.10
2019-03-27T13:13:07.637Z,13.20
2019-03-27T13:14:07.252Z,13.30
2019-03-27T13:15:07.719Z,13.40
2019-03-27T13:16:07.252Z,13.70
2019-03-27T13:17:07.008Z,13.80
2019-03-27T13:18:07.457Z,14.00
2019-03-27T13:19:07.896Z,14.10
2019-03-27T13:20:07.568Z,14.00
2019-03-27T13:21:08.003Z,14.10
2019-03-27T13:22:07.530Z,14.00
2019-03-27T13:23:07.898Z,14.10
2019-03-27T13:24:07.584Z,14.20
2019-03-27T13:25:06.154Z,14.20
2019-03-27T13:27:33.304Z,14.10
2019-03-27T13:28:33.775Z,13.80
2019-03-27T13:29:33.472Z,13.90
2019-03-27T13:30:33.905Z,13.80
2019-03-27T13:31:34.352Z,14.00
2019-03-27T13:32:34.791Z,14.00
2019-03-27T13:33:34.343Z,14.10
2019-03-27T13:34:33.952Z,14.00
2019-03-27T13:35:33.477Z,13.90
2019-03-27T13:36:34.377Z,13.80
2019-03-27T13:37:34.642Z,13.90
2019-03-27T13:38:34.194Z,13.80
2019-03-27T13:39:33.796Z,13.70
2019-03-27T13:40:37.319Z,13.90
2019-03-27T13:41:36.980Z,14.00
2019-03-27T13:42:36.588Z,13.90
2019-03-27T13:43:36.128Z,13.90
2019-03-27T13:44:37.252Z,13.80
2019-03-27T13:45:37.544Z,13.70
2019-03-27T13:46:37.103Z,13.90
2019-03-27T13:47:36.692Z,13.80
2019-03-27T13:48:36.248Z,13.70
2019-03-27T13:49:36.807Z,13.70